sensor_id;sensor_type;location;lat;lon;timestamp;pressure;altitude;pressure_sealevel;temperature;humidity
45731;BME280;31440;48.584;13.460;2023-02-13T00:02:18;98828.81;;;0.43;100.00
45731;BME280;31440;48.584;13.460;2023-02-13T00:05:23;98828.38;;;0.57;100.00
45731;BME280;31440;48.584;13.460;2023-02-13T00:08:27;98789.50;;;0.41;100.00
45731;BME280;31440;48.584;13.460;2023-02-13T00:11:32;98791.91;;;0.37;100.00
45731;BME280;31440;48.584;13.460;2023-02-13T00:14:37;98813.69;;;0.51;100.00
45731;BME280;31440;48.584;13.460;2023-02-13T00:17:42;98791.75;;;0.59;100.00
45731;BME280;31440;48.584;13.460;2023-02-13T00:20:56;98811.81;;;0.46;100.00
45731;BME280;31440;48.584;13.460;2023-02-13T00:24:01;98803.28;;;0.20;100.00
45731;BME280;31440;48.584;13.460;2023-02-13T00:27:06;98787.53;;;0.34;100.00
45731;BME280;31440;48.584;13.460;2023-02-13T00:30:11;98814.38;;;0.46;100.00
45731;BME280;31440;48.584;13.460;2023-02-13T00:33:16;98799.28;;;0.55;100.00
45731;BME280;31440;48.584;13.460;2023-02-13T00:36:22;98817.78;;;0.73;100.00
45731;BME280;31440;48.584;13.460;2023-02-13T00:39:27;98818.91;;;0.27;100.00
45731;BME280;31440;48.584;13.460;2023-02-13T00:42:32;98779.97;;;0.37;100.00
45731;BME280;31440;48.584;13.460;2023-02-13T00:45:37;98817.84;;;0.74;100.00
45731;BME280;31440;48.584;13.460;2023-02-13T00:48:42;98817.38;;;0.86;100.00
45731;BME280;31440;48.584;13.460;2023-02-13T00:51:46;98785.22;;;0.69;100.00
45731;BME280;31440;48.584;13.460;2023-02-13T00:54:51;98781.28;;;0.52;100.00
45731;BME280;31440;48.584;13.460;2023-02-13T00:57:56;98770.72;;;0.69;100.00
45731;BME280;31440;48.584;13.460;2023-02-13T01:01:00;98803.63;;;0.84;100.00
45731;BME280;31440;48.584;13.460;2023-02-13T01:04:05;98802.75;;;1.12;100.00
45731;BME280;31440;48.584;13.460;2023-02-13T01:07:10;98780.03;;;0.66;100.00
45731;BME280;31440;48.584;13.460;2023-02-13T01:10:14;98823.09;;;0.79;100.00
45731;BME280;31440;48.584;13.460;2023-02-13T01:13:19;98821.38;;;1.06;100.00
45731;BME280;31440;48.584;13.460;2023-02-13T01:16:24;98774.50;;;0.81;100.00
45731;BME280;31440;48.584;13.460;2023-02-13T01:19:29;98813.28;;;0.93;100.00
45731;BME280;31440;48.584;13.460;2023-02-13T01:22:34;98821.22;;;1.00;100.00
45731;BME280;31440;48.584;13.460;2023-02-13T01:25:42;98792.13;;;0.98;100.00
45731;BME280;31440;48.584;13.460;2023-02-13T01:28:47;98782.41;;;0.88;100.00
45731;BME280;31440;48.584;13.460;2023-02-13T01:31:54;98787.75;;;0.96;100.00
45731;BME280;31440;48.584;13.460;2023-02-13T01:34:59;98811.69;;;0.96;100.00
45731;BME280;31440;48.584;13.460;2023-02-13T01:38:04;98793.13;;;1.05;100.00
45731;BME280;31440;48.584;13.460;2023-02-13T01:41:09;98817.91;;;1.33;100.00
45731;BME280;31440;48.584;13.460;2023-02-13T01:44:47;98808.44;;;1.02;100.00
45731;BME280;31440;48.584;13.460;2023-02-13T01:47:59;98806.13;;;1.11;100.00
45731;BME280;31440;48.584;13.460;2023-02-13T01:51:13;98802.66;;;1.37;100.00
45731;BME280;31440;48.584;13.460;2023-02-13T01:54:24;98813.53;;;1.00;100.00
45731;BME280;31440;48.584;13.460;2023-02-13T01:57:37;98792.16;;;1.00;100.00
45731;BME280;31440;48.584;13.460;2023-02-13T02:00:44;98815.47;;;1.09;100.00
45731;BME280;31440;48.584;13.460;2023-02-13T02:04:12;98788.97;;;1.08;100.00
45731;BME280;31440;48.584;13.460;2023-02-13T02:07:22;98796.13;;;1.19;100.00
45731;BME280;31440;48.584;13.460;2023-02-13T02:10:28;98767.22;;;0.94;100.00
45731;BME280;31440;48.584;13.460;2023-02-13T02:13:33;98780.53;;;1.11;100.00
45731;BME280;31440;48.584;13.460;2023-02-13T02:16:43;98770.41;;;0.86;100.00
45731;BME280;31440;48.584;13.460;2023-02-13T02:23:25;98797.78;;;1.17;100.00
45731;BME280;31440;48.584;13.460;2023-02-13T02:27:16;98796.56;;;1.04;100.00
45731;BME280;31440;48.584;13.460;2023-02-13T02:30:58;98797.25;;;0.98;100.00
45731;BME280;31440;48.584;13.460;2023-02-13T02:34:36;98797.63;;;1.12;100.00
45731;BME280;31440;48.584;13.460;2023-02-13T02:38:03;98789.25;;;0.89;100.00
45731;BME280;31440;48.584;13.460;2023-02-13T02:48:32;98748.03;;;0.53;100.00
45731;BME280;31440;48.584;13.460;2023-02-13T02:52:04;98777.81;;;0.50;100.00
45731;BME280;31440;48.584;13.460;2023-02-13T02:55:36;98735.81;;;0.43;100.00
45731;BME280;31440;48.584;13.460;2023-02-13T02:58:53;98730.94;;;0.24;100.00
45731;BME280;31440;48.584;13.460;2023-02-13T03:02:19;98753.47;;;0.35;100.00
45731;BME280;31440;48.584;13.460;2023-02-13T03:05:53;98767.59;;;0.51;100.00
45731;BME280;31440;48.584;13.460;2023-02-13T03:09:41;98772.44;;;0.42;100.00
45731;BME280;31440;48.584;13.460;2023-02-13T03:13:12;98780.44;;;0.53;100.00
45731;BME280;31440;48.584;13.460;2023-02-13T03:16:27;98778.19;;;0.62;100.00
45731;BME280;31440;48.584;13.460;2023-02-13T03:23:44;98738.94;;;0.34;100.00
45731;BME280;31440;48.584;13.460;2023-02-13T03:26:58;98782.66;;;0.69;100.00
45731;BME280;31440;48.584;13.460;2023-02-13T03:30:17;98743.22;;;0.08;100.00
45731;BME280;31440;48.584;13.460;2023-02-13T03:37:04;98789.06;;;0.28;100.00
45731;BME280;31440;48.584;13.460;2023-02-13T03:40:43;98752.84;;;0.42;100.00
45731;BME280;31440;48.584;13.460;2023-02-13T03:47:14;98753.69;;;-0.11;100.00
45731;BME280;31440;48.584;13.460;2023-02-13T03:50:19;98795.91;;;0.29;100.00
45731;BME280;31440;48.584;13.460;2023-02-13T03:53:26;98791.84;;;0.35;100.00
45731;BME280;31440;48.584;13.460;2023-02-13T03:56:33;98777.59;;;0.17;100.00
45731;BME280;31440;48.584;13.460;2023-02-13T03:59:57;98785.94;;;0.11;100.00
45731;BME280;31440;48.584;13.460;2023-02-13T04:03:13;98784.56;;;0.21;100.00
45731;BME280;31440;48.584;13.460;2023-02-13T04:06:26;98786.81;;;0.12;100.00
45731;BME280;31440;48.584;13.460;2023-02-13T04:09:36;98720.97;;;-0.19;100.00
45731;BME280;31440;48.584;13.460;2023-02-13T04:13:04;98773.81;;;0.05;100.00
45731;BME280;31440;48.584;13.460;2023-02-13T04:16:18;98774.09;;;0.13;100.00
45731;BME280;31440;48.584;13.460;2023-02-13T04:19:25;98777.13;;;0.03;100.00
45731;BME280;31440;48.584;13.460;2023-02-13T04:22:30;98773.81;;;-0.20;100.00
45731;BME280;31440;48.584;13.460;2023-02-13T04:25:36;98778.47;;;-0.08;100.00
45731;BME280;31440;48.584;13.460;2023-02-13T04:28:42;98772.22;;;-0.16;100.00
45731;BME280;31440;48.584;13.460;2023-02-13T04:31:47;98751.66;;;-0.21;100.00
45731;BME280;31440;48.584;13.460;2023-02-13T04:34:52;98773.19;;;-0.13;100.00
45731;BME280;31440;48.584;13.460;2023-02-13T04:37:56;98752.41;;;-0.47;100.00
45731;BME280;31440;48.584;13.460;2023-02-13T04:41:01;98763.38;;;-0.26;100.00
45731;BME280;31440;48.584;13.460;2023-02-13T04:44:05;98752.97;;;-0.80;100.00
45731;BME280;31440;48.584;13.460;2023-02-13T04:47:10;98753.91;;;-0.78;100.00
45731;BME280;31440;48.584;13.460;2023-02-13T04:50:15;98758.47;;;-0.69;100.00
45731;BME280;31440;48.584;13.460;2023-02-13T04:53:19;98778.72;;;-0.74;100.00
45731;BME280;31440;48.584;13.460;2023-02-13T04:56:24;98753.44;;;-1.14;100.00
45731;BME280;31440;48.584;13.460;2023-02-13T04:59:28;98740.00;;;-1.08;100.00
45731;BME280;31440;48.584;13.460;2023-02-13T05:02:33;98784.00;;;-0.93;100.00
45731;BME280;31440;48.584;13.460;2023-02-13T05:05:39;98762.09;;;-1.09;100.00
45731;BME280;31440;48.584;13.460;2023-02-13T05:08:43;98766.44;;;-1.30;100.00
45731;BME280;31440;48.584;13.460;2023-02-13T05:11:52;98760.97;;;-1.39;100.00
45731;BME280;31440;48.584;13.460;2023-02-13T05:14:57;98755.50;;;-1.26;100.00
45731;BME280;31440;48.584;13.460;2023-02-13T05:18:01;98762.81;;;-1.35;100.00
45731;BME280;31440;48.584;13.460;2023-02-13T05:21:06;98779.94;;;-1.33;100.00
45731;BME280;31440;48.584;13.460;2023-02-13T05:24:29;98784.13;;;-1.35;100.00
45731;BME280;31440;48.584;13.460;2023-02-13T05:27:33;98732.16;;;-1.80;100.00
45731;BME280;31440;48.584;13.460;2023-02-13T05:30:38;98745.63;;;-1.61;100.00
45731;BME280;31440;48.584;13.460;2023-02-13T05:33:43;98751.16;;;-1.51;100.00
45731;BME280;31440;48.584;13.460;2023-02-13T05:36:48;98782.31;;;-1.37;100.00
45731;BME280;31440;48.584;13.460;2023-02-13T05:39:53;98790.84;;;-1.57;100.00
45731;BME280;31440;48.584;13.460;2023-02-13T05:42:58;98743.63;;;-1.48;100.00
45731;BME280;31440;48.584;13.460;2023-02-13T05:46:04;98795.16;;;-1.56;100.00
45731;BME280;31440;48.584;13.460;2023-02-13T05:49:11;98796.78;;;-1.79;100.00
45731;BME280;31440;48.584;13.460;2023-02-13T05:52:16;98796.41;;;-1.24;100.00
45731;BME280;31440;48.584;13.460;2023-02-13T05:55:21;98802.03;;;-1.33;100.00
45731;BME280;31440;48.584;13.460;2023-02-13T05:58:26;98803.56;;;-1.16;100.00
45731;BME280;31440;48.584;13.460;2023-02-13T06:01:30;98770.63;;;-1.53;100.00
45731;BME280;31440;48.584;13.460;2023-02-13T06:04:35;98760.06;;;-1.62;100.00
45731;BME280;31440;48.584;13.460;2023-02-13T06:07:40;98800.19;;;-1.58;100.00
45731;BME280;31440;48.584;13.460;2023-02-13T06:10:46;98815.09;;;-1.46;100.00
45731;BME280;31440;48.584;13.460;2023-02-13T06:13:50;98777.97;;;-1.17;100.00
45731;BME280;31440;48.584;13.460;2023-02-13T06:16:55;98816.84;;;-0.56;100.00
45731;BME280;31440;48.584;13.460;2023-02-13T06:20:00;98802.75;;;-1.15;100.00
45731;BME280;31440;48.584;13.460;2023-02-13T06:23:05;98782.63;;;-1.29;100.00
45731;BME280;31440;48.584;13.460;2023-02-13T06:26:10;98812.47;;;-0.82;100.00
45731;BME280;31440;48.584;13.460;2023-02-13T06:29:14;98819.75;;;-0.47;100.00
45731;BME280;31440;48.584;13.460;2023-02-13T06:32:19;98834.28;;;-0.68;100.00
45731;BME280;31440;48.584;13.460;2023-02-13T06:35:24;98829.31;;;0.08;100.00
45731;BME280;31440;48.584;13.460;2023-02-13T06:38:29;98828.16;;;0.49;100.00
45731;BME280;31440;48.584;13.460;2023-02-13T06:41:34;98813.41;;;-0.33;100.00
45731;BME280;31440;48.584;13.460;2023-02-13T06:44:38;98780.41;;;-0.74;100.00
45731;BME280;31440;48.584;13.460;2023-02-13T06:47:44;98826.91;;;-0.37;100.00
45731;BME280;31440;48.584;13.460;2023-02-13T06:50:49;98838.16;;;-0.32;100.00
45731;BME280;31440;48.584;13.460;2023-02-13T06:53:55;98801.28;;;-0.38;100.00
45731;BME280;31440;48.584;13.460;2023-02-13T06:57:00;98821.03;;;-0.34;100.00
45731;BME280;31440;48.584;13.460;2023-02-13T07:00:05;98797.88;;;-0.63;100.00
45731;BME280;31440;48.584;13.460;2023-02-13T07:03:09;98807.56;;;-0.30;100.00
45731;BME280;31440;48.584;13.460;2023-02-13T07:06:18;98798.72;;;-0.40;100.00
45731;BME280;31440;48.584;13.460;2023-02-13T07:09:23;98813.31;;;-0.36;100.00
45731;BME280;31440;48.584;13.460;2023-02-13T07:12:27;98843.06;;;-0.14;100.00
45731;BME280;31440;48.584;13.460;2023-02-13T07:15:33;98802.44;;;-0.54;100.00
45731;BME280;31440;48.584;13.460;2023-02-13T07:18:38;98833.88;;;-0.33;100.00
45731;BME280;31440;48.584;13.460;2023-02-13T07:21:42;98826.53;;;-0.23;100.00
45731;BME280;31440;48.584;13.460;2023-02-13T07:24:47;98814.06;;;-0.14;100.00
45731;BME280;31440;48.584;13.460;2023-02-13T07:27:52;98820.75;;;-0.18;100.00
45731;BME280;31440;48.584;13.460;2023-02-13T07:30:57;98816.59;;;-0.40;100.00
45731;BME280;31440;48.584;13.460;2023-02-13T07:34:02;98861.94;;;-0.10;100.00
45731;BME280;31440;48.584;13.460;2023-02-13T07:37:06;98860.47;;;-0.04;100.00
45731;BME280;31440;48.584;13.460;2023-02-13T07:40:11;98850.44;;;0.02;100.00
45731;BME280;31440;48.584;13.460;2023-02-13T07:43:16;98856.72;;;-0.13;100.00
45731;BME280;31440;48.584;13.460;2023-02-13T07:46:21;98871.34;;;-0.09;100.00
45731;BME280;31440;48.584;13.460;2023-02-13T07:49:25;98849.84;;;0.09;100.00
45731;BME280;31440;48.584;13.460;2023-02-13T07:52:30;98784.78;;;-0.48;100.00
45731;BME280;31440;48.584;13.460;2023-02-13T07:55:35;98845.38;;;-0.21;100.00
45731;BME280;31440;48.584;13.460;2023-02-13T07:58:40;98858.25;;;-0.42;100.00
45731;BME280;31440;48.584;13.460;2023-02-13T08:01:45;98846.53;;;-0.36;100.00
45731;BME280;31440;48.584;13.460;2023-02-13T08:04:50;98837.41;;;-0.53;100.00
45731;BME280;31440;48.584;13.460;2023-02-13T08:07:54;98850.84;;;-0.35;100.00
45731;BME280;31440;48.584;13.460;2023-02-13T08:11:04;98852.59;;;-0.34;100.00
45731;BME280;31440;48.584;13.460;2023-02-13T08:14:29;98860.94;;;-0.38;100.00
45731;BME280;31440;48.584;13.460;2023-02-13T08:17:33;98861.06;;;-0.58;100.00
45731;BME280;31440;48.584;13.460;2023-02-13T08:20:38;98845.53;;;-0.41;100.00
45731;BME280;31440;48.584;13.460;2023-02-13T08:23:43;98880.00;;;-0.06;100.00
45731;BME280;31440;48.584;13.460;2023-02-13T08:26:47;98890.38;;;-0.01;100.00
45731;BME280;31440;48.584;13.460;2023-02-13T08:29:52;98849.34;;;-0.52;100.00
45731;BME280;31440;48.584;13.460;2023-02-13T08:32:56;98852.59;;;-0.10;100.00
45731;BME280;31440;48.584;13.460;2023-02-13T08:36:02;98866.06;;;-0.38;100.00
45731;BME280;31440;48.584;13.460;2023-02-13T08:39:08;98887.81;;;-0.49;100.00
45731;BME280;31440;48.584;13.460;2023-02-13T08:42:13;98881.09;;;-0.23;100.00
45731;BME280;31440;48.584;13.460;2023-02-13T08:45:19;98863.81;;;-0.76;100.00
45731;BME280;31440;48.584;13.460;2023-02-13T08:48:25;98895.00;;;-0.39;100.00
45731;BME280;31440;48.584;13.460;2023-02-13T08:51:30;98900.41;;;-0.07;100.00
45731;BME280;31440;48.584;13.460;2023-02-13T08:54:34;98904.69;;;0.18;100.00
45731;BME280;31440;48.584;13.460;2023-02-13T08:57:39;98905.84;;;-0.22;100.00
45731;BME280;31440;48.584;13.460;2023-02-13T09:00:44;98899.00;;;-0.23;100.00
45731;BME280;31440;48.584;13.460;2023-02-13T09:03:49;98876.25;;;-0.39;100.00
45731;BME280;31440;48.584;13.460;2023-02-13T09:06:54;98859.44;;;-0.33;100.00
45731;BME280;31440;48.584;13.460;2023-02-13T09:09:59;98869.28;;;-0.19;100.00
45731;BME280;31440;48.584;13.460;2023-02-13T09:13:03;98911.84;;;-0.21;100.00
45731;BME280;31440;48.584;13.460;2023-02-13T09:16:09;98897.53;;;0.07;100.00
45731;BME280;31440;48.584;13.460;2023-02-13T09:19:14;98906.88;;;-0.17;100.00
45731;BME280;31440;48.584;13.460;2023-02-13T09:22:19;98902.88;;;0.15;100.00
45731;BME280;31440;48.584;13.460;2023-02-13T09:25:24;98854.03;;;-0.16;100.00
45731;BME280;31440;48.584;13.460;2023-02-13T09:28:29;98864.28;;;-0.16;100.00
45731;BME280;31440;48.584;13.460;2023-02-13T09:31:34;98899.53;;;0.41;100.00
45731;BME280;31440;48.584;13.460;2023-02-13T09:34:39;98894.56;;;0.21;100.00
45731;BME280;31440;48.584;13.460;2023-02-13T09:37:44;98898.75;;;0.19;100.00
45731;BME280;31440;48.584;13.460;2023-02-13T09:41:01;98908.16;;;0.43;100.00
45731;BME280;31440;48.584;13.460;2023-02-13T09:44:16;98858.50;;;0.13;100.00
45731;BME280;31440;48.584;13.460;2023-02-13T09:47:41;98903.94;;;0.46;100.00
45731;BME280;31440;48.584;13.460;2023-02-13T09:50:47;98877.28;;;0.64;100.00
45731;BME280;31440;48.584;13.460;2023-02-13T09:53:56;98902.88;;;0.91;100.00
45731;BME280;31440;48.584;13.460;2023-02-13T10:00:34;98879.34;;;0.76;100.00
45731;BME280;31440;48.584;13.460;2023-02-13T10:03:47;98908.59;;;1.09;100.00
45731;BME280;31440;48.584;13.460;2023-02-13T10:07:38;98913.50;;;1.30;100.00
45731;BME280;31440;48.584;13.460;2023-02-13T10:10:59;98874.16;;;0.74;100.00
45731;BME280;31440;48.584;13.460;2023-02-13T10:17:28;98896.00;;;1.45;100.00
45731;BME280;31440;48.584;13.460;2023-02-13T10:20:42;98899.53;;;1.49;100.00
45731;BME280;31440;48.584;13.460;2023-02-13T10:23:54;98893.19;;;1.66;100.00
45731;BME280;31440;48.584;13.460;2023-02-13T10:27:08;98890.47;;;1.90;100.00
45731;BME280;31440;48.584;13.460;2023-02-13T10:30:29;98878.28;;;1.83;100.00
45731;BME280;31440;48.584;13.460;2023-02-13T10:33:57;98872.44;;;1.87;100.00
45731;BME280;31440;48.584;13.460;2023-02-13T10:37:20;98893.06;;;1.62;100.00
45731;BME280;31440;48.584;13.460;2023-02-13T10:40:31;98900.81;;;2.58;100.00
45731;BME280;31440;48.584;13.460;2023-02-13T10:51:00;98894.66;;;1.87;100.00
45731;BME280;31440;48.584;13.460;2023-02-13T10:57:22;98900.72;;;1.90;100.00
45731;BME280;31440;48.584;13.460;2023-02-13T11:07:13;98868.31;;;1.92;100.00
45731;BME280;31440;48.584;13.460;2023-02-13T11:10:24;98890.19;;;1.81;100.00
45731;BME280;31440;48.584;13.460;2023-02-13T11:13:29;98898.28;;;1.95;100.00
45731;BME280;31440;48.584;13.460;2023-02-13T11:16:50;98855.63;;;2.31;100.00
45731;BME280;31440;48.584;13.460;2023-02-13T11:19:59;98894.00;;;1.95;100.00
45731;BME280;31440;48.584;13.460;2023-02-13T11:26:34;98895.19;;;1.76;100.00
45731;BME280;31440;48.584;13.460;2023-02-13T11:29:57;98898.16;;;2.22;100.00
45731;BME280;31440;48.584;13.460;2023-02-13T11:33:26;98883.88;;;2.31;100.00
45731;BME280;31440;48.584;13.460;2023-02-13T11:36:32;98892.38;;;2.30;100.00
45731;BME280;31440;48.584;13.460;2023-02-13T11:39:41;98848.31;;;2.13;100.00
45731;BME280;31440;48.584;13.460;2023-02-13T11:42:46;98851.09;;;2.21;100.00
45731;BME280;31440;48.584;13.460;2023-02-13T11:49:16;98887.78;;;2.84;100.00
45731;BME280;31440;48.584;13.460;2023-02-13T11:52:27;98893.78;;;2.85;100.00
45731;BME280;31440;48.584;13.460;2023-02-13T11:55:35;98883.06;;;3.03;100.00
45731;BME280;31440;48.584;13.460;2023-02-13T11:58:41;98877.38;;;2.78;100.00
45731;BME280;31440;48.584;13.460;2023-02-13T12:01:46;98856.50;;;3.02;100.00
45731;BME280;31440;48.584;13.460;2023-02-13T12:05:14;98877.91;;;3.01;100.00
45731;BME280;31440;48.584;13.460;2023-02-13T12:08:19;98878.16;;;3.12;100.00
45731;BME280;31440;48.584;13.460;2023-02-13T12:14:41;98848.88;;;2.69;100.00
45731;BME280;31440;48.584;13.460;2023-02-13T12:18:14;98875.69;;;3.16;100.00
45731;BME280;31440;48.584;13.460;2023-02-13T12:21:31;98880.88;;;3.18;100.00
45731;BME280;31440;48.584;13.460;2023-02-13T12:24:51;98874.69;;;3.10;100.00
45731;BME280;31440;48.584;13.460;2023-02-13T12:28:10;98862.56;;;3.06;100.00
45731;BME280;31440;48.584;13.460;2023-02-13T12:31:22;98869.69;;;3.16;100.00
45731;BME280;31440;48.584;13.460;2023-02-13T12:34:59;98861.50;;;3.34;100.00
45731;BME280;31440;48.584;13.460;2023-02-13T12:38:37;98843.41;;;2.56;100.00
45731;BME280;31440;48.584;13.460;2023-02-13T12:48:36;98850.13;;;3.24;100.00
45731;BME280;31440;48.584;13.460;2023-02-13T12:51:55;98848.31;;;3.18;100.00
45731;BME280;31440;48.584;13.460;2023-02-13T12:55:27;98824.72;;;2.97;100.00
45731;BME280;31440;48.584;13.460;2023-02-13T12:59:13;98836.41;;;3.23;100.00
45731;BME280;31440;48.584;13.460;2023-02-13T13:16:29;98826.78;;;2.76;100.00
45731;BME280;31440;48.584;13.460;2023-02-13T13:23:04;98830.16;;;3.11;100.00
45731;BME280;31440;48.584;13.460;2023-02-13T13:26:20;98828.34;;;3.07;100.00
45731;BME280;31440;48.584;13.460;2023-02-13T13:29:42;98836.03;;;3.07;100.00
45731;BME280;31440;48.584;13.460;2023-02-13T13:32:53;98822.94;;;2.95;100.00
45731;BME280;31440;48.584;13.460;2023-02-13T13:36:18;98835.69;;;2.92;100.00
45731;BME280;31440;48.584;13.460;2023-02-13T13:42:57;98812.84;;;3.44;100.00
45731;BME280;31440;48.584;13.460;2023-02-13T13:49:57;98837.41;;;3.30;100.00
45731;BME280;31440;48.584;13.460;2023-02-13T13:56:13;98804.88;;;3.31;100.00
45731;BME280;31440;48.584;13.460;2023-02-13T14:02:51;98831.81;;;3.48;100.00
45731;BME280;31440;48.584;13.460;2023-02-13T14:09:42;98834.31;;;3.45;100.00
45731;BME280;31440;48.584;13.460;2023-02-13T14:12:49;98798.16;;;3.37;100.00
45731;BME280;31440;48.584;13.460;2023-02-13T14:15:56;98819.72;;;3.87;100.00
45731;BME280;31440;48.584;13.460;2023-02-13T14:19:04;98803.25;;;3.79;100.00
45731;BME280;31440;48.584;13.460;2023-02-13T14:25:24;98816.38;;;3.48;100.00
45731;BME280;31440;48.584;13.460;2023-02-13T14:28:30;98774.78;;;3.27;100.00
45731;BME280;31440;48.584;13.460;2023-02-13T14:31:36;98808.13;;;3.23;100.00
45731;BME280;31440;48.584;13.460;2023-02-13T14:35:32;98804.94;;;2.95;100.00
45731;BME280;31440;48.584;13.460;2023-02-13T14:38:22;98810.25;;;3.43;100.00
45731;BME280;31440;48.584;13.460;2023-02-13T14:41:44;98812.94;;;3.47;100.00
45731;BME280;31440;48.584;13.460;2023-02-13T14:45:00;98788.22;;;3.13;100.00
45731;BME280;31440;48.584;13.460;2023-02-13T14:48:11;98792.19;;;3.40;100.00
45731;BME280;31440;48.584;13.460;2023-02-13T14:51:33;98801.53;;;3.35;100.00
45731;BME280;31440;48.584;13.460;2023-02-13T14:54:45;98765.34;;;3.26;100.00
45731;BME280;31440;48.584;13.460;2023-02-13T14:58:04;98785.19;;;3.33;100.00
45731;BME280;31440;48.584;13.460;2023-02-13T15:01:17;98793.16;;;3.45;100.00
45731;BME280;31440;48.584;13.460;2023-02-13T15:04:37;98794.66;;;3.34;100.00
45731;BME280;31440;48.584;13.460;2023-02-13T15:07:50;98798.09;;;3.34;100.00
45731;BME280;31440;48.584;13.460;2023-02-13T15:10:56;98784.16;;;3.24;100.00
45731;BME280;31440;48.584;13.460;2023-02-13T15:17:32;98752.09;;;3.07;100.00
45731;BME280;31440;48.584;13.460;2023-02-13T15:20:44;98778.72;;;3.51;100.00
45731;BME280;31440;48.584;13.460;2023-02-13T15:23:52;98780.41;;;3.49;100.00
45731;BME280;31440;48.584;13.460;2023-02-13T15:27:01;98787.91;;;3.40;100.00
45731;BME280;31440;48.584;13.460;2023-02-13T15:33:33;98781.28;;;3.09;100.00
45731;BME280;31440;48.584;13.460;2023-02-13T15:36:40;98780.41;;;3.09;100.00
45731;BME280;31440;48.584;13.460;2023-02-13T15:39:45;98765.59;;;2.97;100.00
45731;BME280;31440;48.584;13.460;2023-02-13T15:42:53;98778.19;;;3.26;100.00
45731;BME280;31440;48.584;13.460;2023-02-13T15:46:02;98773.34;;;3.41;100.00
45731;BME280;31440;48.584;13.460;2023-02-13T15:49:13;98771.34;;;2.87;100.00
45731;BME280;31440;48.584;13.460;2023-02-13T15:52:25;98795.69;;;3.01;100.00
45731;BME280;31440;48.584;13.460;2023-02-13T15:55:33;98781.63;;;2.87;100.00
45731;BME280;31440;48.584;13.460;2023-02-13T15:58:39;98750.41;;;2.69;100.00
45731;BME280;31440;48.584;13.460;2023-02-13T16:01:45;98770.84;;;3.03;100.00
45731;BME280;31440;48.584;13.460;2023-02-13T16:04:52;98770.78;;;2.99;100.00
45731;BME280;31440;48.584;13.460;2023-02-13T16:07:58;98787.56;;;2.84;100.00
45731;BME280;31440;48.584;13.460;2023-02-13T16:11:18;98761.28;;;2.57;100.00
45731;BME280;31440;48.584;13.460;2023-02-13T16:14:24;98796.16;;;2.85;100.00
45731;BME280;31440;48.584;13.460;2023-02-13T16:17:32;98756.09;;;2.56;100.00
45731;BME280;31440;48.584;13.460;2023-02-13T16:20:38;98754.28;;;2.51;100.00
45731;BME280;31440;48.584;13.460;2023-02-13T16:23:43;98755.50;;;2.30;100.00
45731;BME280;31440;48.584;13.460;2023-02-13T16:26:48;98747.84;;;2.33;100.00
45731;BME280;31440;48.584;13.460;2023-02-13T16:29:57;98785.72;;;2.41;100.00
45731;BME280;31440;48.584;13.460;2023-02-13T16:33:21;98786.34;;;2.33;100.00
45731;BME280;31440;48.584;13.460;2023-02-13T16:36:28;98798.84;;;2.19;100.00
45731;BME280;31440;48.584;13.460;2023-02-13T16:39:33;98758.91;;;2.30;100.00
45731;BME280;31440;48.584;13.460;2023-02-13T16:42:39;98792.69;;;2.84;100.00
45731;BME280;31440;48.584;13.460;2023-02-13T16:45:43;98790.38;;;2.58;100.00
45731;BME280;31440;48.584;13.460;2023-02-13T16:52:10;98791.53;;;2.34;100.00
45731;BME280;31440;48.584;13.460;2023-02-13T16:55:15;98786.34;;;2.33;100.00
45731;BME280;31440;48.584;13.460;2023-02-13T16:58:20;98758.16;;;2.34;100.00
45731;BME280;31440;48.584;13.460;2023-02-13T17:01:25;98786.34;;;2.69;100.00
45731;BME280;31440;48.584;13.460;2023-02-13T17:04:30;98759.84;;;2.34;100.00
45731;BME280;31440;48.584;13.460;2023-02-13T17:07:42;98796.16;;;2.49;100.00
45731;BME280;31440;48.584;13.460;2023-02-13T17:11:07;98790.31;;;2.54;100.00
45731;BME280;31440;48.584;13.460;2023-02-13T17:14:11;98785.00;;;2.47;100.00
45731;BME280;31440;48.584;13.460;2023-02-13T17:17:19;98797.91;;;2.87;100.00
45731;BME280;31440;48.584;13.460;2023-02-13T17:20:31;98760.63;;;2.31;100.00
45731;BME280;31440;48.584;13.460;2023-02-13T17:23:36;98797.69;;;2.41;100.00
45731;BME280;31440;48.584;13.460;2023-02-13T17:26:42;98795.16;;;2.42;100.00
45731;BME280;31440;48.584;13.460;2023-02-13T17:29:47;98780.13;;;2.23;100.00
45731;BME280;31440;48.584;13.460;2023-02-13T17:33:05;98803.06;;;2.51;100.00
45731;BME280;31440;48.584;13.460;2023-02-13T17:36:11;98803.38;;;2.64;100.00
45731;BME280;31440;48.584;13.460;2023-02-13T17:39:16;98771.72;;;2.65;100.00
45731;BME280;31440;48.584;13.460;2023-02-13T17:42:26;98809.38;;;3.02;100.00
45731;BME280;31440;48.584;13.460;2023-02-13T17:45:33;98791.13;;;2.53;100.00
45731;BME280;31440;48.584;13.460;2023-02-13T17:48:38;98810.22;;;3.02;100.00
45731;BME280;31440;48.584;13.460;2023-02-13T17:51:43;98780.63;;;2.08;100.00
45731;BME280;31440;48.584;13.460;2023-02-13T17:54:49;98786.44;;;2.36;100.00
45731;BME280;31440;48.584;13.460;2023-02-13T17:57:55;98772.34;;;1.86;100.00
45731;BME280;31440;48.584;13.460;2023-02-13T18:01:00;98811.59;;;2.16;100.00
45731;BME280;31440;48.584;13.460;2023-02-13T18:04:05;98808.53;;;2.64;100.00
45731;BME280;31440;48.584;13.460;2023-02-13T18:07:11;98799.84;;;2.24;100.00
45731;BME280;31440;48.584;13.460;2023-02-13T18:10:24;98810.31;;;2.33;100.00
45731;BME280;31440;48.584;13.460;2023-02-13T18:13:29;98814.63;;;2.34;100.00
45731;BME280;31440;48.584;13.460;2023-02-13T18:16:34;98787.50;;;2.09;100.00
45731;BME280;31440;48.584;13.460;2023-02-13T18:19:39;98774.38;;;1.99;100.00
45731;BME280;31440;48.584;13.460;2023-02-13T18:22:44;98779.81;;;2.09;100.00